Terminal Aerodrome Forecast
Issued by NWS Wilmington, NC

Current Version | Previous Version | Graphics & Text | Print | Product List | Glossary Off
Versions: 1 2 3 4 5 6 7 8 9 10 11 12

854
FTUS42 KILM 211120
TAFMYR
TAF
KMYR 211120Z 2112/2212 VRB03KT P6SM FEW040 BKN250
     FM211500 09008KT P6SM BKN040
     FM212300 14006KT P6SM VCSH SCT025 BKN040
      TEMPO 2201/2205 4SM -SHRA BKN025
     FM220800 31005KT 3SM -DZ BR BKN006=

USA.gov is the U.S. government's official web portal to all federal, state and local government web resources and services.